Time;durP1;ratioP1;P1;durP2;ratioP2;P2;SDS_P1;SDS_P2;PMS_P1;PMS_P2;Temp;Humidity;BMP_temperature;BMP_pressure;BME280_temperature;BME280_humidity;BME280_pressure;Samples;Min_cycle;Max_cycle;Signal;HPM_P1;HPM_P2
2024/04/22 00:00:19;;;;;;;6.10;2.42;;;;;;;7.89;64.98;98841.25;5419505;26;20011;-46
2024/04/22 00:02:45;;;;;;;8.43;6.80;;;;;;;7.78;65.28;98841.66;5419272;26;20010;-45
2024/04/22 00:05:12;;;;;;;3.22;1.75;;;;;;;7.89;64.83;98843.06;5417297;26;20010;-45
2024/04/22 00:07:37;;;;;;;3.72;2.00;;;;;;;7.84;64.87;98834.94;5419235;26;19999;-45
2024/04/22 00:10:03;;;;;;;3.78;1.48;;;;;;;7.94;64.38;98840.69;5417322;26;20000;-45
2024/04/22 00:12:29;;;;;;;4.93;1.90;;;;;;;7.93;64.22;98834.66;5419087;26;20004;-45
2024/04/22 00:14:55;;;;;;;4.97;1.85;;;;;;;7.99;64.21;98833.16;5418870;26;20011;-45
2024/04/22 00:17:21;;;;;;;2.38;2.13;;;;;;;8.16;63.85;98833.75;5417160;26;20011;-45
2024/04/22 00:19:47;;;;;;;7.13;3.08;;;;;;;8.29;64.22;98835.72;5418990;26;20011;-45
2024/04/22 00:22:12;;;;;;;8.20;2.72;;;;;;;8.37;62.89;98823.38;5418822;26;20401;-45
2024/04/22 00:24:38;;;;;;;3.28;1.60;;;;;;;8.37;63.11;98831.22;5418984;26;20050;-45
2024/04/22 00:27:04;;;;;;;7.28;2.05;;;;;;;8.32;62.44;98823.09;5419117;26;19999;-45
2024/04/22 00:29:30;;;;;;;8.82;1.70;;;;;;;8.22;62.02;98825.19;5417081;26;20014;-45
2024/04/22 00:31:56;;;;;;;6.68;2.45;;;;;;;8.02;62.65;98824.13;5416943;26;20450;-45
2024/04/22 00:34:21;;;;;;;8.38;1.92;;;;;;;7.98;63.18;98821.06;5418671;26;20000;-45
2024/04/22 00:36:47;;;;;;;3.17;1.55;;;;;;;8.15;63.61;98835.56;5387240;26;20407;-45
2024/04/22 00:39:13;;;;;;;6.15;2.08;;;;;;;8.20;63.27;98820.16;5418815;26;20072;-45
2024/04/22 00:41:40;;;;;;;5.22;2.72;;;;;;;8.43;63.26;98826.28;5418530;26;20349;-45
2024/04/22 00:44:05;;;;;;;7.63;1.50;;;;;;;8.56;62.56;98827.25;5418601;26;20003;-45
2024/04/22 00:46:32;;;;;;;8.32;3.60;;;;;;;8.58;61.76;98817.41;5418510;26;20013;-45
2024/04/22 00:48:58;;;;;;;3.13;1.77;;;;;;;8.59;61.79;98824.28;5418552;26;20076;-45
2024/04/22 00:51:24;;;;;;;3.78;2.00;;;;;;;8.60;61.89;98817.25;5416798;26;20011;-45
2024/04/22 00:53:51;;;;;;;6.00;2.33;;;;;;;8.74;61.80;98812.97;5416633;26;20004;-45
2024/04/22 00:56:18;;;;;;;4.78;2.50;;;;;;;8.82;61.73;98814.66;5416649;26;20014;-45
2024/04/22 00:58:47;;;;;;;5.63;2.08;;;;;;;8.80;60.78;98809.59;5418491;26;20000;-45
2024/04/22 01:01:13;;;;;;;2.50;1.52;;;;;;;8.71;60.48;98808.09;5418267;26;20004;-45
2024/04/22 01:03:40;;;;;;;6.05;2.10;;;;;;;8.64;60.72;98794.94;5415776;26;20426;-45
2024/04/22 01:06:06;;;;;;;6.68;4.05;;;;;;;8.67;60.55;98784.13;5416498;26;20004;-45
2024/04/22 01:08:32;;;;;;;4.15;1.60;;;;;;;8.66;60.13;98779.06;5418337;26;19999;-45
2024/04/22 01:10:58;;;;;;;11.13;3.28;;;;;;;8.65;60.34;98766.97;5418232;26;19999;-45
2024/04/22 01:13:23;;;;;;;2.80;1.50;;;;;;;8.73;60.03;98764.22;5418391;26;20010;-45
2024/04/22 01:15:49;;;;;;;3.15;1.70;;;;;;;8.66;59.97;98779.06;5416300;26;20000;-45
2024/04/22 01:18:17;;;;;;;2.65;1.70;;;;;;;8.52;59.42;98785.97;5418054;26;20000;-45
2024/04/22 01:20:43;;;;;;;10.18;4.53;;;;;;;8.37;60.13;98784.16;5416508;26;20004;-45
2024/04/22 01:23:08;;;;;;;6.82;1.90;;;;;;;8.43;60.34;98787.06;5416492;26;20461;-45
2024/04/22 01:25:37;;;;;;;6.43;1.70;;;;;;;8.35;59.22;98791.38;5418153;26;20003;-45
2024/04/22 01:28:04;;;;;;;2.67;1.75;;;;;;;8.20;60.20;98791.38;5416258;26;20018;-45
2024/04/22 01:30:30;;;;;;;2.95;1.58;;;;;;;8.17;60.66;98791.75;5416151;26;20011;-45
2024/04/22 01:32:56;;;;;;;6.15;4.55;;;;;;;8.18;60.85;98796.00;5417926;26;20031;-45
2024/04/22 01:35:22;;;;;;;4.47;2.13;;;;;;;8.26;61.24;98787.25;5417800;26;20021;-45
2024/04/22 01:37:48;;;;;;;2.65;1.90;;;;;;;8.32;60.85;98786.50;5417905;26;20000;-45
2024/04/22 01:40:13;;;;;;;3.00;1.70;;;;;;;8.43;60.94;98780.03;5416291;26;19999;-45
2024/04/22 01:42:39;;;;;;;3.80;3.38;;;;;;;8.54;60.87;98782.16;5416310;26;19999;-45
2024/04/22 01:45:05;;;;;;;4.65;1.83;;;;;;;8.64;60.70;98797.56;5417924;26;20325;-45
2024/04/22 01:47:31;;;;;;;79.20;67.90;;;;;;;8.63;59.82;98784.66;5416306;26;20008;-45
2024/04/22 01:49:57;;;;;;;12.40;9.75;;;;;;;8.55;59.79;98791.66;5418004;26;20444;-45
2024/04/22 01:52:23;;;;;;;52.70;47.13;;;;;;;8.56;60.13;98785.41;5418055;26;20436;-45
2024/04/22 01:54:48;;;;;;;7.10;5.63;;;;;;;8.51;59.76;98792.16;5416014;26;20076;-45
2024/04/22 01:57:14;;;;;;;36.35;23.23;;;;;;;8.46;60.40;98791.94;5416047;26;20014;-45
2024/04/22 01:59:39;;;;;;;68.47;61.17;;;;;;;8.40;60.05;98786.41;5416013;26;20010;-45
2024/04/22 02:02:05;;;;;;;12.77;11.38;;;;;;;8.23;60.04;98795.47;5416038;26;20449;-45
2024/04/22 02:04:31;;;;;;;13.70;6.60;;;;;;;8.18;60.61;98789.97;5415717;26;20015;-45
2024/04/22 02:06:57;;;;;;;10.15;6.22;;;;;;;8.24;60.36;98793.66;5415574;26;20003;-45
2024/04/22 02:09:23;;;;;;;20.80;11.18;;;;;;;8.09;60.07;98791.03;5415760;26;20010;-45
2024/04/22 02:11:50;;;;;;;8.30;4.75;;;;;;;7.91;60.97;98791.44;5417250;26;20478;-45
2024/04/22 02:14:16;;;;;;;7.90;2.92;;;;;;;8.03;61.36;98781.31;5417349;26;20004;-46
2024/04/22 02:16:41;;;;;;;5.93;2.30;;;;;;;8.00;60.93;98788.50;5415733;26;20435;-45
2024/04/22 02:19:07;;;;;;;12.60;4.30;;;;;;;7.82;60.21;98788.06;5415475;26;20019;-45
2024/04/22 02:21:33;;;;;;;2.33;1.88;;;;;;;7.77;61.04;98787.81;5415382;26;20076;-45
2024/04/22 02:23:58;;;;;;;7.65;2.35;;;;;;;7.89;61.33;98790.78;5415562;26;20018;-45
2024/04/22 02:26:24;;;;;;;3.67;1.88;;;;;;;8.02;60.81;98783.13;5415600;26;20014;-46
2024/04/22 02:28:50;;;;;;;6.50;5.90;;;;;;;8.03;60.93;98776.91;5417339;26;20003;-45
2024/04/22 02:31:16;;;;;;;4.78;3.17;;;;;;;7.92;60.30;98775.53;5415423;26;20052;-45
2024/04/22 02:33:42;;;;;;;3.42;2.05;;;;;;;7.79;60.66;98775.38;5415285;26;20003;-45
2024/04/22 02:36:08;;;;;;;9.38;2.30;;;;;;;7.70;60.81;98782.47;5385476;26;20018;-46
2024/04/22 02:38:33;;;;;;;10.75;2.25;;;;;;;7.71;61.74;98789.34;5385759;26;20019;-45
2024/04/22 02:40:59;;;;;;;4.13;2.53;;;;;;;7.80;61.96;98788.25;5415128;26;20000;-45
2024/04/22 02:43:25;;;;;;;4.25;1.85;;;;;;;7.98;61.26;98787.88;5416859;26;20339;-45
2024/04/22 02:45:50;;;;;;;7.57;2.13;;;;;;;8.16;60.53;98791.94;5415057;26;20076;-45
2024/04/22 02:48:16;;;;;;;5.40;2.20;;;;;;;8.22;60.13;98795.63;5417001;26;20015;-45
2024/04/22 02:50:41;;;;;;;3.38;1.60;;;;;;;8.25;60.10;98790.03;5415060;26;20077;-45
2024/04/22 02:53:07;;;;;;;6.47;2.30;;;;;;;8.38;60.16;98795.44;5416988;26;20242;-45
2024/04/22 02:55:33;;;;;;;13.60;12.32;;;;;;;8.51;59.14;98802.63;5414927;26;19999;-45
2024/04/22 02:57:59;;;;;;;7.38;3.20;;;;;;;8.51;59.09;98795.63;5417031;26;20003;-45
2024/04/22 03:00:25;;;;;;;3.33;2.10;;;;;;;8.34;58.15;98791.56;5415100;26;20033;-45
2024/04/22 03:02:51;;;;;;;5.30;2.42;;;;;;;8.29;59.21;98793.91;5416741;26;20068;-45
2024/04/22 03:05:17;;;;;;;5.07;2.70;;;;;;;8.47;59.25;98785.69;5416704;26;20023;-45
2024/04/22 03:07:43;;;;;;;3.75;2.45;;;;;;;8.54;58.19;98791.81;5416657;26;20010;-46
2024/04/22 03:10:09;;;;;;;8.02;5.43;;;;;;;8.52;58.60;98776.31;5416506;26;20011;-45
2024/04/22 03:12:35;;;;;;;2.10;1.80;;;;;;;8.65;57.63;98785.28;5416675;26;19999;-45
2024/04/22 03:15:01;;;;;;;3.47;1.85;;;;;;;8.56;57.37;98781.97;5416361;26;20009;-45
2024/04/22 03:17:27;;;;;;;3.97;1.80;;;;;;;8.50;57.59;98780.09;5385280;26;20084;-45
2024/04/22 03:19:53;;;;;;;3.00;1.95;;;;;;;8.46;57.92;98784.09;5416438;26;20004;-45
2024/04/22 03:22:19;;;;;;;3.78;3.15;;;;;;;8.52;58.39;98789.38;5416257;26;20014;-45
2024/04/22 03:24:45;;;;;;;5.93;3.53;;;;;;;8.60;58.11;98789.25;5414584;26;20012;-45
2024/04/22 03:27:11;;;;;;;8.10;2.42;;;;;;;8.50;57.77;98791.38;5415618;26;20450;-45
2024/04/22 03:29:37;;;;;;;5.13;2.15;;;;;;;8.41;58.36;98789.88;5414897;26;20075;-45
2024/04/22 03:32:04;;;;;;;3.90;2.20;;;;;;;8.38;58.56;98787.59;5416092;26;20068;-45
2024/04/22 03:34:29;;;;;;;4.10;2.28;;;;;;;8.34;58.23;98792.38;5414354;26;20010;-45
2024/04/22 03:36:55;;;;;;;7.80;2.65;;;;;;;8.28;58.44;98797.53;5415793;26;20012;-45
2024/04/22 03:39:21;;;;;;;4.13;2.10;;;;;;;8.15;58.61;98796.38;5416098;26;20008;-45
2024/04/22 03:41:46;;;;;;;4.07;2.20;;;;;;;8.16;58.94;98790.13;5414096;26;20000;-45
2024/04/22 03:44:12;;;;;;;7.20;2.65;;;;;;;8.09;59.20;98789.25;5414232;26;20011;-45
2024/04/22 03:52:06;;;;;;;7.65;3.08;;;;;;;8.26;59.31;98786.44;5415982;26;20065;-45
2024/04/22 03:54:32;;;;;;;2.92;2.22;;;;;;;8.33;59.68;98782.06;5415774;26;20327;-45
2024/04/22 03:56:58;;;;;;;9.60;8.63;;;;;;;8.39;59.59;98779.56;5415664;26;20015;-45
2024/04/22 03:59:23;;;;;;;4.47;3.15;;;;;;;8.35;59.22;98774.84;5415657;26;20435;-45
2024/04/22 04:01:49;;;;;;;7.35;3.10;;;;;;;8.20;59.07;98777.50;5415678;26;20007;-44
2024/04/22 04:04:15;;;;;;;4.90;2.47;;;;;;;8.15;59.65;98774.66;5413816;26;20438;-45
2024/04/22 04:06:41;;;;;;;6.30;2.60;;;;;;;7.90;59.30;98779.34;5413813;26;20026;-45
2024/04/22 04:09:06;;;;;;;3.45;2.58;;;;;;;7.73;60.03;98773.50;5415655;26;20011;-45
2024/04/22 04:11:36;;;;;;;5.65;3.03;;;;;;;7.65;60.55;98773.56;5415404;26;20011;-45
2024/04/22 04:14:05;;;;;;;7.22;4.60;;;;;;;7.61;60.73;98778.34;5415547;26;20172;-45
2024/04/22 04:16:31;;;;;;;5.63;2.65;;;;;;;7.54;60.96;98775.63;5415218;26;20015;-45
2024/04/22 04:18:57;;;;;;;3.83;2.30;;;;;;;7.55;61.45;98772.03;5413663;26;20000;-44
2024/04/22 04:21:23;;;;;;;5.05;2.60;;;;;;;7.54;60.76;98773.00;5415332;26;19999;-44
2024/04/22 04:23:48;;;;;;;5.57;2.63;;;;;;;7.48;60.92;98783.34;5413522;26;20015;-44
2024/04/22 04:26:14;;;;;;;4.57;2.65;;;;;;;7.43;61.07;98775.25;5415157;26;20338;-44
2024/04/22 04:28:40;;;;;;;5.93;3.00;;;;;;;7.42;61.26;98768.41;5415157;26;20008;-45
2024/04/22 04:31:05;;;;;;;7.45;5.78;;;;;;;7.45;61.60;98771.47;5415233;26;20015;-44
2024/04/22 04:33:31;;;;;;;5.15;2.90;;;;;;;7.44;61.28;98771.66;5415059;26;20003;-44
2024/04/22 04:36:01;;;;;;;6.07;2.55;;;;;;;7.43;61.03;98765.63;5414874;26;20000;-45
2024/04/22 04:38:27;;;;;;;6.78;2.17;;;;;;;7.41;61.62;98772.81;5413048;26;20011;-45
2024/04/22 04:40:53;;;;;;;7.65;2.97;;;;;;;7.50;61.70;98766.50;5418574;26;20003;-45
2024/04/22 04:43:18;;;;;;;5.95;2.63;;;;;;;7.57;61.09;98764.03;5416822;26;20457;-45
2024/04/22 04:45:44;;;;;;;9.88;3.10;;;;;;;7.55;60.73;98768.63;5418500;26;20354;-45
2024/04/22 04:48:10;;;;;;;6.88;2.63;;;;;;;7.45;61.10;98778.50;5416818;26;20503;-45
2024/04/22 04:50:36;;;;;;;10.48;9.02;;;;;;;7.44;61.48;98775.06;5416771;26;20454;-45
2024/04/22 04:53:01;;;;;;;10.18;6.50;;;;;;;7.63;61.65;98771.13;5418641;26;20000;-45
2024/04/22 04:55:27;;;;;;;5.65;4.00;;;;;;;7.69;60.74;98773.03;5418407;26;20017;-45
2024/04/22 04:57:53;;;;;;;3.33;2.40;;;;;;;7.62;60.70;98782.56;5416580;26;20106;-45
2024/04/22 05:00:19;;;;;;;6.90;4.20;;;;;;;7.67;60.69;98782.84;5387052;26;20031;-45
2024/04/22 05:02:44;;;;;;;7.35;5.35;;;;;;;7.73;60.13;98784.75;5418502;26;20003;-45
2024/04/22 05:05:10;;;;;;;29.75;26.75;;;;;;;7.72;60.64;98780.50;5418368;26;20018;-45
2024/04/22 05:07:37;;;;;;;7.25;4.18;;;;;;;7.74;60.52;98781.13;5418301;26;20003;-45
2024/04/22 05:10:03;;;;;;;5.75;2.90;;;;;;;7.77;59.97;98788.63;5418356;26;20449;-45
2024/04/22 05:12:29;;;;;;;11.82;3.20;;;;;;;7.76;60.14;98789.59;5418222;26;20007;-45
2024/04/22 05:14:54;;;;;;;6.25;2.55;;;;;;;7.83;59.83;98788.88;5418192;26;20000;-45
2024/04/22 05:17:20;;;;;;;13.07;7.38;;;;;;;7.78;59.89;98800.69;5418104;26;20003;-45
2024/04/22 05:19:46;;;;;;;9.27;3.17;;;;;;;7.80;60.01;98803.13;5418079;26;20007;-45
2024/04/22 05:22:12;;;;;;;11.10;3.15;;;;;;;7.89;60.16;98804.66;5418098;26;20003;-45
2024/04/22 05:24:37;;;;;;;12.15;8.00;;;;;;;8.14;60.21;98799.16;5416235;26;20333;-45
2024/04/22 05:27:03;;;;;;;8.05;3.97;;;;;;;8.33;59.05;98801.22;5416216;26;20000;-45
2024/04/22 05:29:29;;;;;;;6.07;2.90;;;;;;;8.44;58.58;98794.72;5418018;26;20522;-45
2024/04/22 05:31:55;;;;;;;9.05;4.75;;;;;;;8.60;58.28;98791.88;5418109;26;20019;-45
2024/04/22 05:37:05;;;;;;;8.18;3.72;;;;;;;8.85;56.76;98798.56;5417928;26;20015;-45
2024/04/22 05:39:31;;;;;;;11.60;3.08;;;;;;;8.94;56.06;98792.22;5418192;26;20047;-45
2024/04/22 05:41:57;;;;;;;5.07;2.80;;;;;;;9.01;56.18;98793.09;5416262;26;20004;-45
2024/04/22 05:44:22;;;;;;;16.15;10.55;;;;;;;9.00;55.12;98789.66;5418072;26;20076;-45
2024/04/22 05:46:48;;;;;;;6.15;3.22;;;;;;;8.98;55.24;98777.78;5417905;26;20038;-44
2024/04/22 05:49:14;;;;;;;11.05;3.92;;;;;;;8.90;55.12;98785.75;5416232;26;20084;-45
2024/04/22 05:51:39;;;;;;;12.27;4.10;;;;;;;8.96;55.51;98795.47;5417687;26;20004;-44
2024/04/22 05:54:08;;;;;;;11.57;4.93;;;;;;;9.04;54.57;98781.44;5417876;26;20048;-44
2024/04/22 05:56:34;;;;;;;18.52;4.70;;;;;;;9.00;54.31;98776.56;5417754;26;20015;-44
2024/04/22 05:59:00;;;;;;;31.45;5.30;;;;;;;8.92;54.58;98789.78;5416255;26;20007;-45
2024/04/22 06:01:26;;;;;;;24.92;10.13;;;;;;;8.84;54.83;98776.03;5417786;26;19999;-44
2024/04/22 06:03:55;;;;;;;21.20;10.35;;;;;;;8.76;55.00;98771.72;5416074;26;20076;-45
2024/04/22 06:06:20;;;;;;;43.33;16.10;;;;;;;8.81;55.12;98779.81;5417718;26;20031;-45
2024/04/22 06:08:46;;;;;;;48.42;28.13;;;;;;;8.84;54.89;98770.81;5417479;26;20004;-45
2024/04/22 06:11:12;;;;;;;23.38;16.83;;;;;;;8.80;54.70;98772.97;5417525;26;20031;-44
2024/04/22 06:13:38;;;;;;;39.20;31.35;;;;;;;8.90;54.70;98773.47;5415523;26;20404;-44
2024/04/22 06:16:04;;;;;;;32.85;26.17;;;;;;;8.91;53.77;98764.59;5415582;26;20460;-44
2024/04/22 06:18:29;;;;;;;43.78;36.17;;;;;;;8.87;54.25;98763.34;5415579;26;20345;-44
2024/04/22 06:20:55;;;;;;;38.08;31.88;;;;;;;9.00;54.37;98786.25;5417146;26;20010;-44
2024/04/22 06:23:21;;;;;;;21.20;15.73;;;;;;;9.29;53.97;98763.53;5417287;26;20368;-45
2024/04/22 06:25:47;;;;;;;16.35;10.82;;;;;;;9.38;53.03;98775.50;5415332;26;20021;-44
2024/04/22 06:28:12;;;;;;;22.20;7.72;;;;;;;9.38;53.19;98771.06;5417318;26;20003;-45
2024/04/22 06:30:38;;;;;;;15.90;9.57;;;;;;;9.43;52.69;98764.44;5417145;26;20503;-44
2024/04/22 06:33:04;;;;;;;9.38;6.95;;;;;;;9.39;52.72;98766.63;5417235;26;19999;-45
2024/04/22 06:35:29;;;;;;;12.55;7.15;;;;;;;9.57;53.04;98768.75;5415195;26;20018;-45
2024/04/22 06:37:55;;;;;;;21.60;16.80;;;;;;;9.70;52.28;98763.63;5414991;26;20476;-45
2024/04/22 06:40:21;;;;;;;23.02;13.95;;;;;;;9.61;52.27;98762.13;5415212;26;20072;-44
2024/04/22 06:42:47;;;;;;;12.32;9.85;;;;;;;9.43;52.47;98767.84;5415127;26;20392;-44
2024/04/22 06:45:13;;;;;;;12.45;8.55;;;;;;;9.24;52.85;98771.16;5415218;26;20010;-44
2024/04/22 06:47:39;;;;;;;20.90;12.05;;;;;;;9.22;53.89;98767.91;5385482;26;20011;-45
2024/04/22 06:50:05;;;;;;;11.13;7.32;;;;;;;9.47;53.86;98761.22;5415040;26;20003;-45
2024/04/22 06:52:30;;;;;;;6.88;6.18;;;;;;;9.59;53.04;98759.69;5415059;26;20470;-45
2024/04/22 06:54:56;;;;;;;21.02;17.35;;;;;;;9.79;52.96;98759.81;5415174;26;20093;-45
2024/04/22 06:57:22;;;;;;;15.77;14.25;;;;;;;10.05;52.05;98758.34;5414896;26;20003;-45
2024/04/22 06:59:48;;;;;;;9.68;8.75;;;;;;;10.32;51.12;98743.56;5414962;26;20004;-45
2024/04/22 07:02:13;;;;;;;20.38;18.10;;;;;;;10.77;50.48;98748.31;5415545;26;20456;-45
2024/04/22 07:04:39;;;;;;;6.78;4.53;;;;;;;11.45;48.55;98742.84;5416684;26;20004;-45
2024/04/22 07:07:05;;;;;;;15.02;11.77;;;;;;;11.64;46.71;98738.56;5416643;26;20010;-45
2024/04/22 07:09:30;;;;;;;10.55;7.05;;;;;;;11.44;45.62;98741.22;5416565;26;20000;-45
2024/04/22 07:11:56;;;;;;;19.23;10.68;;;;;;;11.95;45.39;98735.28;5414902;26;20503;-44
2024/04/22 07:14:22;;;;;;;33.00;23.50;;;;;;;12.85;43.02;98733.59;5414813;26;20022;-44
2024/04/22 07:16:56;;;;;;;18.35;12.50;;;;;;;13.97;41.00;98721.19;5416339;26;20337;-45
2024/04/22 07:19:22;;;;;;;34.13;18.13;;;;;;;14.14;39.87;98736.41;5414638;26;20004;-45
2024/04/22 07:21:48;;;;;;;6.07;4.47;;;;;;;13.55;40.13;98743.97;5414513;26;20030;-45
2024/04/22 07:24:13;;;;;;;14.38;10.20;;;;;;;13.26;41.32;98751.50;5416451;26;20004;-45
2024/04/22 07:26:39;;;;;;;10.75;4.68;;;;;;;13.03;41.40;98738.13;5414455;26;20014;-45
2024/04/22 07:29:05;;;;;;;12.95;8.15;;;;;;;12.61;42.10;98737.78;5416356;26;20000;-45
2024/04/22 07:31:32;;;;;;;10.93;7.95;;;;;;;12.25;42.91;98739.19;5416327;26;20008;-45
2024/04/22 07:33:58;;;;;;;7.22;2.97;;;;;;;12.19;42.50;98748.72;5416158;26;20014;-45
2024/04/22 07:36:37;;;;;;;19.17;13.43;;;;;;;12.15;42.63;98743.09;5415952;26;20000;-44
2024/04/22 07:39:05;;;;;;;5.93;5.03;;;;;;;12.02;42.52;98739.72;5416493;26;20077;-45
2024/04/22 07:41:31;;;;;;;11.57;3.35;;;;;;;12.18;42.69;98734.78;5416287;26;20003;-45
2024/04/22 07:43:58;;;;;;;10.95;8.02;;;;;;;12.34;43.08;98738.75;5416321;26;20076;-45
2024/04/22 07:46:27;;;;;;;14.18;8.80;;;;;;;12.29;43.47;98730.66;5385045;26;20013;-45
2024/04/22 07:48:52;;;;;;;9.85;6.70;;;;;;;12.77;42.65;98748.63;5416406;26;20004;-45
2024/04/22 07:51:18;;;;;;;8.18;3.25;;;;;;;14.50;40.80;98730.25;5416238;26;20003;-45
2024/04/22 07:53:44;;;;;;;7.82;5.82;;;;;;;15.10;37.77;98718.00;5416251;26;20000;-45
2024/04/22 07:56:17;;;;;;;12.80;9.55;;;;;;;15.09;39.06;98726.97;5416181;26;19999;-45
2024/04/22 07:58:44;;;;;;;17.70;11.18;;;;;;;16.92;35.34;98721.13;5416070;26;20019;-45
2024/04/22 08:01:11;;;;;;;8.80;4.97;;;;;;;18.82;33.25;98718.19;5416015;26;20136;-45
2024/04/22 08:03:37;;;;;;;74.82;66.18;;;;;;;19.48;29.75;98709.06;5416031;26;20004;-45
2024/04/22 08:06:05;;;;;;;308.67;274.58;;;;;;;17.91;31.35;98714.31;5414057;26;20004;-45
2024/04/22 08:08:32;;;;;;;181.55;161.48;;;;;;;17.47;33.35;98711.59;5415904;26;20003;-45
2024/04/22 08:10:59;;;;;;;59.00;35.28;;;;;;;18.18;31.80;98716.22;5413739;26;20003;-46
2024/04/22 08:13:25;;;;;;;24.73;14.43;;;;;;;18.07;31.28;98725.94;5415159;26;20010;-45
2024/04/22 08:15:50;;;;;;;18.85;8.85;;;;;;;16.92;32.14;98718.50;5417184;26;19999;-45
2024/04/22 08:18:17;;;;;;;11.63;5.15;;;;;;;16.05;33.94;98739.91;5418987;26;20007;-45
2024/04/22 08:20:42;;;;;;;17.20;3.85;;;;;;;15.78;35.00;98732.50;5418967;26;20354;-45
2024/04/22 08:23:08;;;;;;;13.63;3.95;;;;;;;14.95;35.91;98732.47;5417168;26;20035;-45
2024/04/22 08:25:34;;;;;;;11.95;3.38;;;;;;;14.28;37.61;98729.13;5417074;26;20003;-45
2024/04/22 08:28:00;;;;;;;7.13;3.78;;;;;;;13.91;38.56;98734.47;5387601;26;20000;-45
2024/04/22 08:30:27;;;;;;;9.77;2.67;;;;;;;14.14;38.99;98744.34;5418735;26;20003;-46
2024/04/22 08:32:52;;;;;;;5.00;2.60;;;;;;;14.45;38.36;98729.34;5418949;26;20008;-45
2024/04/22 08:35:18;;;;;;;5.45;2.70;;;;;;;14.62;37.93;98721.59;5418736;26;20007;-45
2024/04/22 08:37:44;;;;;;;9.85;3.97;;;;;;;14.87;37.67;98726.69;5418463;26;19999;-46
2024/04/22 08:40:10;;;;;;;6.93;2.60;;;;;;;14.83;36.54;98713.16;5418683;26;20355;-45
2024/04/22 08:42:38;;;;;;;4.20;2.45;;;;;;;14.37;36.59;98719.88;5387344;26;20072;-45
2024/04/22 08:45:05;;;;;;;6.57;2.85;;;;;;;14.30;37.27;98721.81;5418746;26;20018;-45
2024/04/22 08:47:31;;;;;;;3.58;2.40;;;;;;;14.72;36.89;98704.16;5416841;26;20004;-45
2024/04/22 08:49:58;;;;;;;3.90;2.75;;;;;;;14.94;36.89;98708.91;5418696;26;20102;-45
2024/04/22 08:52:24;;;;;;;3.33;2.33;;;;;;;15.11;36.86;98715.16;5416732;26;20003;-45
2024/04/22 08:54:49;;;;;;;9.98;4.10;;;;;;;15.27;36.56;98716.31;5416818;26;20342;-46
2024/04/22 08:57:15;;;;;;;5.30;2.90;;;;;;;15.91;35.16;98711.06;5416645;26;20031;-45
2024/04/22 08:59:41;;;;;;;4.13;2.30;;;;;;;16.42;35.20;98708.59;5418395;26;20004;-46
2024/04/22 09:02:07;;;;;;;7.07;3.40;;;;;;;16.36;34.66;98709.56;5418266;26;20014;-45
2024/04/22 09:04:33;;;;;;;14.80;4.85;;;;;;;15.66;35.10;98716.63;5416591;26;20003;-45
2024/04/22 09:07:07;;;;;;;5.57;2.20;;;;;;;15.03;35.62;98712.03;5416590;26;20492;-44
2024/04/22 09:09:33;;;;;;;7.10;2.30;;;;;;;14.80;35.94;98708.31;5418322;26;20509;-45
2024/04/22 09:11:58;;;;;;;3.50;1.60;;;;;;;14.46;36.38;98702.69;5418415;26;20125;-45
2024/04/22 09:14:25;;;;;;;7.15;3.63;;;;;;;14.24;36.84;98717.41;5418086;26;20080;-45
2024/04/22 09:16:51;;;;;;;6.80;3.72;;;;;;;14.34;36.88;98720.31;5418227;26;20457;-45
2024/04/22 09:19:24;;;;;;;10.55;3.05;;;;;;;14.22;36.37;98708.91;5416441;26;20045;-45
2024/04/22 09:21:51;;;;;;;7.88;3.38;;;;;;;14.09;36.66;98701.97;5418173;26;20000;-45
2024/04/22 09:24:17;;;;;;;21.17;16.05;;;;;;;14.20;36.59;98714.41;5415909;26;20008;-45
2024/04/22 09:26:43;;;;;;;18.52;16.70;;;;;;;14.02;36.69;98712.59;5416032;26;20003;-45
2024/04/22 09:29:11;;;;;;;18.73;15.38;;;;;;;14.04;37.59;98710.53;5416230;26;20053;-45
2024/04/22 09:31:40;;;;;;;30.67;26.25;;;;;;;14.60;36.96;98703.34;5417826;26;20010;-45
2024/04/22 09:34:07;;;;;;;18.77;14.45;;;;;;;15.29;34.57;98708.13;5416043;26;20016;-45
2024/04/22 09:36:35;;;;;;;8.52;6.05;;;;;;;15.50;33.84;98688.22;5417590;26;20073;-45
2024/04/22 09:39:00;;;;;;;12.63;10.73;;;;;;;15.29;34.50;98693.09;5418322;26;20334;-45
2024/04/22 09:41:27;;;;;;;8.40;5.63;;;;;;;14.96;34.82;98694.44;5418082;26;20075;-45
2024/04/22 09:43:54;;;;;;;8.50;4.10;;;;;;;14.80;35.08;98695.09;5418107;26;20014;-45
2024/04/22 09:46:26;;;;;;;16.65;13.35;;;;;;;14.55;36.07;98701.34;5418169;26;20003;-45
2024/04/22 09:48:52;;;;;;;12.25;5.00;;;;;;;14.53;36.52;98695.50;5418213;26;20077;-45
2024/04/22 09:51:18;;;;;;;18.13;13.70;;;;;;;14.60;36.07;98698.06;5417977;26;20106;-45
2024/04/22 09:53:45;;;;;;;21.58;16.10;;;;;;;14.50;35.93;98693.28;5416124;26;20012;-45
2024/04/22 09:56:18;;;;;;;17.00;15.32;;;;;;;14.29;35.70;98685.88;5417981;26;20012;-46
2024/04/22 09:58:45;;;;;;;10.18;9.00;;;;;;;14.16;36.98;98695.56;5418030;26;20081;-45
2024/04/22 10:01:11;;;;;;;27.80;21.30;;;;;;;14.21;36.67;98692.28;5416083;26;19999;-45
2024/04/22 10:03:36;;;;;;;14.48;11.88;;;;;;;14.05;36.66;98695.53;5417876;26;20444;-45
2024/04/22 10:06:02;;;;;;;43.30;36.55;;;;;;;13.65;37.41;98696.81;5417905;26;20013;-45
2024/04/22 10:08:29;;;;;;;29.40;21.25;;;;;;;13.23;37.98;98693.16;5416042;26;20073;-45
2024/04/22 10:11:08;;;;;;;17.65;14.40;;;;;;;12.76;38.68;98696.97;5417946;26;20007;-45
2024/04/22 10:13:35;;;;;;;26.67;22.00;;;;;;;12.57;39.78;98690.00;5415707;26;20463;-45
2024/04/22 10:16:01;;;;;;;53.78;36.70;;;;;;;12.70;40.07;98697.03;5417302;26;20018;-45
2024/04/22 10:18:27;;;;;;;63.47;49.20;;;;;;;12.74;39.62;98674.53;5415513;26;20374;-44
2024/04/22 10:21:02;;;;;;;90.55;73.40;;;;;;;12.65;39.64;98688.97;5417246;26;20072;-45
2024/04/22 10:23:28;;;;;;;266.55;238.10;;;;;;;12.48;40.23;98697.38;5415482;26;20458;-45
2024/04/22 10:25:54;;;;;;;791.55;647.15;;;;;;;12.55;40.73;98692.84;5417320;26;20003;-45
2024/04/22 10:28:20;;;;;;;177.73;111.38;;;;;;;12.63;39.75;98672.56;5417265;26;20016;-45
2024/04/22 10:30:46;;;;;;;59.28;39.35;;;;;;;12.67;39.95;98684.28;5415401;26;20000;-45
2024/04/22 10:33:11;;;;;;;16.77;7.90;;;;;;;12.77;39.26;98661.72;5417026;26;19999;-45
2024/04/22 10:35:38;;;;;;;26.02;22.13;;;;;;;12.63;39.42;98657.56;5415226;26;20000;-45
2024/04/22 10:38:06;;;;;;;13.63;8.10;;;;;;;12.55;40.14;98668.38;5415780;26;20327;-45
2024/04/22 10:40:32;;;;;;;13.85;7.50;;;;;;;12.53;40.38;98655.41;5415493;26;20437;-45
2024/04/22 10:42:58;;;;;;;7.22;3.88;;;;;;;12.46;40.57;98678.34;5415493;26;20000;-45
2024/04/22 10:45:24;;;;;;;15.43;12.32;;;;;;;12.54;40.02;98679.94;5417287;26;20007;-45
2024/04/22 10:47:52;;;;;;;13.45;8.90;;;;;;;12.81;39.73;98659.47;5415415;26;19999;-45
2024/04/22 10:50:20;;;;;;;17.65;14.10;;;;;;;13.08;39.31;98675.03;5415561;26;20342;-44
2024/04/22 10:52:46;;;;;;;10.80;9.25;;;;;;;13.06;39.36;98661.25;5417208;26;20004;-44
2024/04/22 10:55:12;;;;;;;11.88;9.63;;;;;;;12.98;40.19;98671.06;5415344;26;20003;-45
2024/04/22 10:57:38;;;;;;;11.32;9.60;;;;;;;13.02;39.43;98666.19;5415365;26;19999;-44
2024/04/22 11:00:07;;;;;;;15.60;7.38;;;;;;;13.08;39.30;98667.13;5417045;26;19999;-44
2024/04/22 11:02:34;;;;;;;8.77;6.05;;;;;;;13.04;39.70;98664.13;5415203;26;20014;-45
2024/04/22 11:05:01;;;;;;;11.00;7.22;;;;;;;12.94;39.72;98656.72;5417088;26;20004;-44
2024/04/22 11:07:30;;;;;;;12.88;11.75;;;;;;;12.78;40.29;98659.91;5415134;26;20000;-45
2024/04/22 11:10:00;;;;;;;10.32;6.93;;;;;;;12.36;41.81;98664.84;5415288;26;19999;-44
2024/04/22 11:12:27;;;;;;;7.68;2.75;;;;;;;11.72;43.10;98688.38;5416741;26;20000;-45
2024/04/22 11:14:53;;;;;;;9.52;8.55;;;;;;;11.36;45.31;98679.19;5414740;26;20003;-44
2024/04/22 11:17:23;;;;;;;5.05;3.63;;;;;;;11.31;44.85;98686.88;5416377;26;20000;-44
2024/04/22 11:19:49;;;;;;;18.02;16.20;;;;;;;11.31;45.46;98684.25;5416414;26;19999;-45
2024/04/22 11:22:16;;;;;;;19.65;17.60;;;;;;;11.27;45.69;98680.41;5416348;26;20018;-44
2024/04/22 11:24:42;;;;;;;8.40;6.20;;;;;;;11.23;46.16;98694.97;5416547;26;20019;-45
2024/04/22 11:27:08;;;;;;;4.20;3.33;;;;;;;11.25;46.06;98695.59;5414510;26;20003;-45
2024/04/22 11:29:34;;;;;;;14.60;4.57;;;;;;;11.35;45.66;98676.78;5416269;26;20011;-45
2024/04/22 11:32:01;;;;;;;4.78;2.65;;;;;;;11.44;45.85;98675.53;5416213;26;20367;-45
2024/04/22 11:34:26;;;;;;;4.35;3.22;;;;;;;11.72;45.63;98662.09;5416063;26;20011;-45